sensor_id;sensor_type;location;lat;lon;timestamp;pressure;altitude;pressure_sealevel;temperature;humidity
8894;BME280;4483;48.622;9.230;2024-03-17T00:00:20;98605.38;;;8.53;100.00
8894;BME280;4483;48.622;9.230;2024-03-17T00:02:46;98605.41;;;8.50;100.00
8894;BME280;4483;48.622;9.230;2024-03-17T00:05:15;98607.22;;;8.47;100.00
8894;BME280;4483;48.622;9.230;2024-03-17T00:07:40;98610.75;;;8.41;100.00
8894;BME280;4483;48.622;9.230;2024-03-17T00:10:08;98609.06;;;8.40;100.00
8894;BME280;4483;48.622;9.230;2024-03-17T00:12:34;98598.91;;;8.34;100.00
8894;BME280;4483;48.622;9.230;2024-03-17T00:15:00;98595.53;;;8.32;100.00
8894;BME280;4483;48.622;9.230;2024-03-17T00:17:26;98590.47;;;8.29;100.00
8894;BME280;4483;48.622;9.230;2024-03-17T00:19:53;98590.53;;;8.25;100.00
8894;BME280;4483;48.622;9.230;2024-03-17T00:22:20;98582.91;;;8.18;100.00
8894;BME280;4483;48.622;9.230;2024-03-17T00:24:46;98593.22;;;8.17;100.00
8894;BME280;4483;48.622;9.230;2024-03-17T00:27:12;98596.69;;;8.13;100.00
8894;BME280;4483;48.622;9.230;2024-03-17T00:29:39;98605.31;;;8.10;100.00
8894;BME280;4483;48.622;9.230;2024-03-17T00:32:06;98593.53;;;8.02;100.00
8894;BME280;4483;48.622;9.230;2024-03-17T00:34:33;98596.03;;;8.05;100.00
8894;BME280;4483;48.622;9.230;2024-03-17T00:36:58;98583.25;;;8.00;100.00
8894;BME280;4483;48.622;9.230;2024-03-17T00:39:27;98580.78;;;7.96;100.00
8894;BME280;4483;48.622;9.230;2024-03-17T00:41:52;98590.16;;;7.97;100.00
8894;BME280;4483;48.622;9.230;2024-03-17T00:44:19;98584.25;;;7.93;100.00
8894;BME280;4483;48.622;9.230;2024-03-17T00:46:45;98584.28;;;7.92;100.00
8894;BME280;4483;48.622;9.230;2024-03-17T00:49:12;98585.19;;;7.91;100.00
8894;BME280;4483;48.622;9.230;2024-03-17T00:51:38;98584.34;;;7.89;100.00
8894;BME280;4483;48.622;9.230;2024-03-17T00:54:04;98579.25;;;7.86;100.00
8894;BME280;4483;48.622;9.230;2024-03-17T00:56:31;98580.19;;;7.83;100.00
8894;BME280;4483;48.622;9.230;2024-03-17T00:58:58;98584.44;;;7.83;100.00
8894;BME280;4483;48.622;9.230;2024-03-17T01:01:23;98580.28;;;7.77;100.00
8894;BME280;4483;48.622;9.230;2024-03-17T01:03:51;98576.03;;;7.75;100.00
8894;BME280;4483;48.622;9.230;2024-03-17T01:06:16;98580.34;;;7.73;100.00
8894;BME280;4483;48.622;9.230;2024-03-17T01:08:43;98579.56;;;7.69;100.00
8894;BME280;4483;48.622;9.230;2024-03-17T01:11:14;98577.09;;;7.65;100.00
8894;BME280;4483;48.622;9.230;2024-03-17T01:13:43;98581.41;;;7.63;100.00
8894;BME280;4483;48.622;9.230;2024-03-17T01:16:08;98575.47;;;7.59;100.00
8894;BME280;4483;48.622;9.230;2024-03-17T01:18:35;98574.63;;;7.59;100.00
8894;BME280;4483;48.622;9.230;2024-03-17T01:21:02;98572.13;;;7.56;100.00
8894;BME280;4483;48.622;9.230;2024-03-17T01:23:29;98571.25;;;7.55;100.00
8894;BME280;4483;48.622;9.230;2024-03-17T01:25:54;98571.25;;;7.55;100.00
8894;BME280;4483;48.622;9.230;2024-03-17T01:28:21;98568.66;;;7.57;100.00
8894;BME280;4483;48.622;9.230;2024-03-17T01:30:48;98569.53;;;7.57;100.00
8894;BME280;4483;48.622;9.230;2024-03-17T01:33:15;98561.78;;;7.59;100.00
8894;BME280;4483;48.622;9.230;2024-03-17T01:35:42;98557.53;;;7.59;100.00
8894;BME280;4483;48.622;9.230;2024-03-17T01:38:08;98561.81;;;7.57;100.00
8894;BME280;4483;48.622;9.230;2024-03-17T01:40:35;98551.53;;;7.59;100.00
8894;BME280;4483;48.622;9.230;2024-03-17T01:43:02;98545.56;;;7.58;100.00
8894;BME280;4483;48.622;9.230;2024-03-17T01:45:29;98548.13;;;7.58;100.00
8894;BME280;4483;48.622;9.230;2024-03-17T01:48:01;98531.16;;;7.51;100.00
8894;BME280;4483;48.622;9.230;2024-03-17T01:50:32;98522.59;;;7.52;100.00
8894;BME280;4483;48.622;9.230;2024-03-17T01:53:01;98530.16;;;7.60;100.00
8894;BME280;4483;48.622;9.230;2024-03-17T01:55:30;98527.56;;;7.61;100.00
8894;BME280;4483;48.622;9.230;2024-03-17T01:57:56;98523.28;;;7.60;100.00
8894;BME280;4483;48.622;9.230;2024-03-17T02:00:23;98526.78;;;7.58;100.00
8894;BME280;4483;48.622;9.230;2024-03-17T02:02:49;98527.69;;;7.54;100.00
8894;BME280;4483;48.622;9.230;2024-03-17T02:05:18;98522.63;;;7.49;100.00
8894;BME280;4483;48.622;9.230;2024-03-17T02:07:43;98521.81;;;7.49;100.00
8894;BME280;4483;48.622;9.230;2024-03-17T02:10:10;98517.50;;;7.49;100.00
8894;BME280;4483;48.622;9.230;2024-03-17T02:12:37;98505.59;;;7.48;100.00
8894;BME280;4483;48.622;9.230;2024-03-17T02:15:05;98507.25;;;7.51;100.00
8894;BME280;4483;48.622;9.230;2024-03-17T02:17:31;98509.75;;;7.54;100.00
8894;BME280;4483;48.622;9.230;2024-03-17T02:19:57;98508.88;;;7.55;100.00
8894;BME280;4483;48.622;9.230;2024-03-17T02:22:25;98495.22;;;7.54;100.00
8894;BME280;4483;48.622;9.230;2024-03-17T02:24:53;98491.88;;;7.49;100.00
8894;BME280;4483;48.622;9.230;2024-03-17T02:27:18;98506.47;;;7.46;100.00
8894;BME280;4483;48.622;9.230;2024-03-17T02:29:45;98506.47;;;7.46;100.00
8894;BME280;4483;48.622;9.230;2024-03-17T02:32:10;98501.41;;;7.43;100.00
8894;BME280;4483;48.622;9.230;2024-03-17T02:34:38;98498.78;;;7.46;100.00
8894;BME280;4483;48.622;9.230;2024-03-17T02:37:04;98496.19;;;7.49;100.00
8894;BME280;4483;48.622;9.230;2024-03-17T02:39:33;98494.47;;;7.48;100.00
8894;BME280;4483;48.622;9.230;2024-03-17T02:42:00;98494.44;;;7.51;100.00
8894;BME280;4483;48.622;9.230;2024-03-17T02:44:28;98487.66;;;7.47;100.00
8894;BME280;4483;48.622;9.230;2024-03-17T02:46:54;98495.22;;;7.53;100.00
8894;BME280;4483;48.622;9.230;2024-03-17T02:49:21;98492.66;;;7.53;100.00
8894;BME280;4483;48.622;9.230;2024-03-17T02:51:47;98474.84;;;7.47;100.00
8894;BME280;4483;48.622;9.230;2024-03-17T02:54:14;98484.97;;;7.53;100.00
8894;BME280;4483;48.622;9.230;2024-03-17T02:56:42;98485.84;;;7.52;100.00
8894;BME280;4483;48.622;9.230;2024-03-17T02:59:09;98477.44;;;7.44;100.00
8894;BME280;4483;48.622;9.230;2024-03-17T03:01:36;98485.06;;;7.48;100.00
8894;BME280;4483;48.622;9.230;2024-03-17T03:04:03;98485.06;;;7.48;100.00
8894;BME280;4483;48.622;9.230;2024-03-17T03:06:31;98488.50;;;7.49;100.00
8894;BME280;4483;48.622;9.230;2024-03-17T03:08:58;98486.75;;;7.51;100.00
8894;BME280;4483;48.622;9.230;2024-03-17T03:11:24;98494.38;;;7.54;100.00
8894;BME280;4483;48.622;9.230;2024-03-17T03:13:53;98493.50;;;7.53;100.00
8894;BME280;4483;48.622;9.230;2024-03-17T03:16:19;98488.34;;;7.55;100.00
8894;BME280;4483;48.622;9.230;2024-03-17T03:18:46;98470.41;;;7.55;100.00
8894;BME280;4483;48.622;9.230;2024-03-17T03:21:12;98467.03;;;7.54;100.00
8894;BME280;4483;48.622;9.230;2024-03-17T03:23:39;98476.50;;;7.51;100.00
8894;BME280;4483;48.622;9.230;2024-03-17T03:26:06;98481.63;;;7.49;100.00
8894;BME280;4483;48.622;9.230;2024-03-17T03:28:35;98480.78;;;7.47;100.00
8894;BME280;4483;48.622;9.230;2024-03-17T03:31:03;98472.28;;;7.47;100.00
8894;BME280;4483;48.622;9.230;2024-03-17T03:33:30;98483.34;;;7.47;100.00
8894;BME280;4483;48.622;9.230;2024-03-17T03:35:57;98479.94;;;7.48;100.00
8894;BME280;4483;48.622;9.230;2024-03-17T03:38:23;98474.88;;;7.45;100.00
8894;BME280;4483;48.622;9.230;2024-03-17T03:40:50;98470.59;;;7.44;100.00
8894;BME280;4483;48.622;9.230;2024-03-17T03:43:17;98476.59;;;7.45;100.00
8894;BME280;4483;48.622;9.230;2024-03-17T03:45:44;98479.16;;;7.45;100.00
8894;BME280;4483;48.622;9.230;2024-03-17T03:48:12;98484.28;;;7.45;100.00
8894;BME280;4483;48.622;9.230;2024-03-17T03:50:39;98475.75;;;7.43;100.00
8894;BME280;4483;48.622;9.230;2024-03-17T03:53:06;98474.06;;;7.42;100.00
8894;BME280;4483;48.622;9.230;2024-03-17T03:55:32;98477.56;;;7.38;100.00
8894;BME280;4483;48.622;9.230;2024-03-17T03:57:58;98469.91;;;7.35;100.00
8894;BME280;4483;48.622;9.230;2024-03-17T04:00:25;98474.09;;;7.40;100.00
8894;BME280;4483;48.622;9.230;2024-03-17T04:02:55;98472.44;;;7.36;100.00
8894;BME280;4483;48.622;9.230;2024-03-17T04:05:23;98479.19;;;7.42;100.00
8894;BME280;4483;48.622;9.230;2024-03-17T04:07:50;98477.50;;;7.41;100.00
8894;BME280;4483;48.622;9.230;2024-03-17T04:10:17;98470.72;;;7.40;100.00
8894;BME280;4483;48.622;9.230;2024-03-17T04:12:46;98469.88;;;7.38;100.00
8894;BME280;4483;48.622;9.230;2024-03-17T04:15:13;98478.41;;;7.38;100.00
8894;BME280;4483;48.622;9.230;2024-03-17T04:17:40;98476.69;;;7.39;100.00
8894;BME280;4483;48.622;9.230;2024-03-17T04:20:08;98480.09;;;7.39;100.00
8894;BME280;4483;48.622;9.230;2024-03-17T04:22:37;98476.66;;;7.40;100.00
8894;BME280;4483;48.622;9.230;2024-03-17T04:25:04;98476.63;;;7.43;100.00
8894;BME280;4483;48.622;9.230;2024-03-17T04:27:30;98478.34;;;7.43;100.00
8894;BME280;4483;48.622;9.230;2024-03-17T04:29:58;98485.19;;;7.41;100.00
8894;BME280;4483;48.622;9.230;2024-03-17T04:32:26;98473.28;;;7.38;100.00
8894;BME280;4483;48.622;9.230;2024-03-17T04:34:53;98469.88;;;7.38;100.00
8894;BME280;4483;48.622;9.230;2024-03-17T04:37:19;98480.97;;;7.40;100.00
8894;BME280;4483;48.622;9.230;2024-03-17T04:39:49;98482.63;;;7.41;100.00
8894;BME280;4483;48.622;9.230;2024-03-17T04:42:16;98474.91;;;7.42;100.00
8894;BME280;4483;48.622;9.230;2024-03-17T04:44:45;98478.34;;;7.43;100.00
8894;BME280;4483;48.622;9.230;2024-03-17T04:47:12;98472.31;;;7.44;100.00
8894;BME280;4483;48.622;9.230;2024-03-17T04:49:40;98468.16;;;7.40;100.00
8894;BME280;4483;48.622;9.230;2024-03-17T04:52:08;98474.91;;;7.42;100.00
8894;BME280;4483;48.622;9.230;2024-03-17T04:54:35;98467.25;;;7.41;100.00
8894;BME280;4483;48.622;9.230;2024-03-17T04:57:03;98473.28;;;7.40;100.00
8894;BME280;4483;48.622;9.230;2024-03-17T04:59:34;98478.34;;;7.43;100.00
8894;BME280;4483;48.622;9.230;2024-03-17T05:02:01;98485.13;;;7.45;100.00
8894;BME280;4483;48.622;9.230;2024-03-17T05:04:28;98475.69;;;7.46;100.00
8894;BME280;4483;48.622;9.230;2024-03-17T05:06:55;98477.44;;;7.44;100.00
8894;BME280;4483;48.622;9.230;2024-03-17T05:09:22;98476.63;;;7.43;100.00
8894;BME280;4483;48.622;9.230;2024-03-17T05:11:50;98478.25;;;7.46;100.00
8894;BME280;4483;48.622;9.230;2024-03-17T05:14:18;98477.44;;;7.44;100.00
8894;BME280;4483;48.622;9.230;2024-03-17T05:16:48;98480.84;;;7.46;100.00
8894;BME280;4483;48.622;9.230;2024-03-17T05:19:15;98468.94;;;7.43;100.00
8894;BME280;4483;48.622;9.230;2024-03-17T05:21:42;98472.44;;;7.38;100.00
8894;BME280;4483;48.622;9.230;2024-03-17T05:24:10;98481.78;;;7.40;100.00
8894;BME280;4483;48.622;9.230;2024-03-17T05:26:37;98473.28;;;7.38;100.00
8894;BME280;4483;48.622;9.230;2024-03-17T05:29:04;98482.63;;;7.41;100.00
8894;BME280;4483;48.622;9.230;2024-03-17T05:31:31;98483.50;;;7.41;100.00
8894;BME280;4483;48.622;9.230;2024-03-17T05:33:58;98492.00;;;7.42;100.00
8894;BME280;4483;48.622;9.230;2024-03-17T05:36:25;98489.44;;;7.43;100.00
8894;BME280;4483;48.622;9.230;2024-03-17T05:38:51;98490.25;;;7.45;100.00
8894;BME280;4483;48.622;9.230;2024-03-17T05:41:18;98478.22;;;7.47;100.00
8894;BME280;4483;48.622;9.230;2024-03-17T05:43:44;98479.09;;;7.48;100.00
8894;BME280;4483;48.622;9.230;2024-03-17T05:46:14;98474.84;;;7.47;100.00
8894;BME280;4483;48.622;9.230;2024-03-17T05:48:42;98487.69;;;7.44;100.00
8894;BME280;4483;48.622;9.230;2024-03-17T05:51:10;98479.22;;;7.40;100.00
8894;BME280;4483;48.622;9.230;2024-03-17T05:53:38;98483.47;;;7.43;100.00
8894;BME280;4483;48.622;9.230;2024-03-17T05:56:06;98484.25;;;7.46;100.00
8894;BME280;4483;48.622;9.230;2024-03-17T05:58:34;98480.00;;;7.45;100.00
8894;BME280;4483;48.622;9.230;2024-03-17T06:01:02;98483.34;;;7.47;100.00
8894;BME280;4483;48.622;9.230;2024-03-17T06:03:29;98475.66;;;7.47;100.00
8894;BME280;4483;48.622;9.230;2024-03-17T06:05:58;98485.03;;;7.50;100.00
8894;BME280;4483;48.622;9.230;2024-03-17T06:08:25;98472.22;;;7.50;100.00
8894;BME280;4483;48.622;9.230;2024-03-17T06:10:51;98458.69;;;7.42;100.00
8894;BME280;4483;48.622;9.230;2024-03-17T06:13:18;98471.31;;;7.52;100.00
8894;BME280;4483;48.622;9.230;2024-03-17T06:15:45;98477.28;;;7.53;100.00
8894;BME280;4483;48.622;9.230;2024-03-17T06:18:13;98490.00;;;7.59;100.00
8894;BME280;4483;48.622;9.230;2024-03-17T06:20:41;98478.78;;;7.64;100.00
8894;BME280;4483;48.622;9.230;2024-03-17T06:23:10;98477.00;;;7.68;100.00
8894;BME280;4483;48.622;9.230;2024-03-17T06:25:39;98473.50;;;7.72;100.00
8894;BME280;4483;48.622;9.230;2024-03-17T06:28:06;98470.88;;;7.76;100.00
8894;BME280;4483;48.622;9.230;2024-03-17T06:30:33;98477.59;;;7.80;100.00
8894;BME280;4483;48.622;9.230;2024-03-17T06:33:01;98472.28;;;7.89;100.00
8894;BME280;4483;48.622;9.230;2024-03-17T06:35:28;98459.13;;;8.06;100.00
8894;BME280;4483;48.622;9.230;2024-03-17T06:37:58;98465.00;;;8.52;100.00
8894;BME280;4483;48.622;9.230;2024-03-17T06:40:26;98473.59;;;8.88;100.00
8894;BME280;4483;48.622;9.230;2024-03-17T06:42:53;98465.75;;;8.92;100.00
8894;BME280;4483;48.622;9.230;2024-03-17T06:45:20;98464.91;;;8.92;100.00
8894;BME280;4483;48.622;9.230;2024-03-17T06:47:47;98464.00;;;8.94;100.00
8894;BME280;4483;48.622;9.230;2024-03-17T06:50:14;98464.66;;;9.02;100.00
8894;BME280;4483;48.622;9.230;2024-03-17T06:52:41;98467.06;;;9.08;100.00
8894;BME280;4483;48.622;9.230;2024-03-17T06:55:08;98469.75;;;9.04;100.00
8894;BME280;4483;48.622;9.230;2024-03-17T06:57:36;98460.38;;;9.01;100.00
8894;BME280;4483;48.622;9.230;2024-03-17T07:00:03;98460.38;;;9.01;100.00
8894;BME280;4483;48.622;9.230;2024-03-17T07:02:31;98462.09;;;9.02;100.00
8894;BME280;4483;48.622;9.230;2024-03-17T07:04:57;98465.41;;;9.06;100.00
8894;BME280;4483;48.622;9.230;2024-03-17T07:07:26;98459.38;;;9.07;100.00
8894;BME280;4483;48.622;9.230;2024-03-17T07:09:53;98463.66;;;9.06;100.00
8894;BME280;4483;48.622;9.230;2024-03-17T07:12:19;98466.28;;;9.05;100.00
8894;BME280;4483;48.622;9.230;2024-03-17T07:14:51;98469.72;;;9.05;100.00
8894;BME280;4483;48.622;9.230;2024-03-17T07:17:18;98465.41;;;9.06;100.00
8894;BME280;4483;48.622;9.230;2024-03-17T07:19:44;98466.25;;;9.06;100.00
8894;BME280;4483;48.622;9.230;2024-03-17T07:22:11;98465.34;;;9.09;100.00
8894;BME280;4483;48.622;9.230;2024-03-17T07:24:37;98457.53;;;9.12;100.00
8894;BME280;4483;48.622;9.230;2024-03-17T07:27:04;98457.91;;;9.31;100.00
8894;BME280;4483;48.622;9.230;2024-03-17T07:29:34;98463.59;;;9.43;100.00
8894;BME280;4483;48.622;9.230;2024-03-17T07:32:02;98467.72;;;9.50;100.00
8894;BME280;4483;48.622;9.230;2024-03-17T07:34:30;98463.47;;;9.48;100.00
8894;BME280;4483;48.622;9.230;2024-03-17T07:36:57;98449.25;;;9.35;100.00
8894;BME280;4483;48.622;9.230;2024-03-17T07:39:28;98455.16;;;9.38;100.00
8894;BME280;4483;48.622;9.230;2024-03-17T07:41:57;98455.91;;;9.42;100.00
8894;BME280;4483;48.622;9.230;2024-03-17T07:44:24;98453.06;;;9.52;100.00
8894;BME280;4483;48.622;9.230;2024-03-17T07:46:51;98459.56;;;9.65;100.00
8894;BME280;4483;48.622;9.230;2024-03-17T07:49:22;98459.91;;;9.84;100.00
8894;BME280;4483;48.622;9.230;2024-03-17T07:51:48;98457.75;;;9.99;100.00
8894;BME280;4483;48.622;9.230;2024-03-17T07:54:15;98453.97;;;10.13;100.00
8894;BME280;4483;48.622;9.230;2024-03-17T07:56:41;98451.22;;;10.19;100.00
8894;BME280;4483;48.622;9.230;2024-03-17T07:59:08;98444.63;;;10.38;100.00
8894;BME280;4483;48.622;9.230;2024-03-17T08:01:37;98451.22;;;10.46;100.00
8894;BME280;4483;48.622;9.230;2024-03-17T08:04:04;98446.34;;;10.65;100.00
8894;BME280;4483;48.622;9.230;2024-03-17T08:06:32;98448.59;;;10.75;100.00
8894;BME280;4483;48.622;9.230;2024-03-17T08:08:59;98434.59;;;10.84;100.00
8894;BME280;4483;48.622;9.230;2024-03-17T08:11:25;98442.09;;;10.90;100.00
8894;BME280;4483;48.622;9.230;2024-03-17T08:13:52;98447.31;;;10.88;100.00
8894;BME280;4483;48.622;9.230;2024-03-17T08:16:19;98449.69;;;10.94;100.00
8894;BME280;4483;48.622;9.230;2024-03-17T08:18:46;98447.31;;;11.14;100.00
8894;BME280;4483;48.622;9.230;2024-03-17T08:21:12;98439.38;;;11.21;100.00
8894;BME280;4483;48.622;9.230;2024-03-17T08:23:40;98439.16;;;11.27;100.00
8894;BME280;4483;48.622;9.230;2024-03-17T08:26:08;98439.75;;;11.35;100.00
8894;BME280;4483;48.622;9.230;2024-03-17T08:28:35;98438.38;;;11.49;100.00
8894;BME280;4483;48.622;9.230;2024-03-17T08:31:02;98436.03;;;11.68;100.00
8894;BME280;4483;48.622;9.230;2024-03-17T08:33:30;98430.59;;;11.98;100.00
8894;BME280;4483;48.622;9.230;2024-03-17T08:35:59;98433.00;;;12.26;100.00
8894;BME280;4483;48.622;9.230;2024-03-17T08:38:26;98424.59;;;12.43;100.00
8894;BME280;4483;48.622;9.230;2024-03-17T08:40:57;98420.34;;;12.63;100.00
8894;BME280;4483;48.622;9.230;2024-03-17T08:43:24;98423.84;;;12.82;100.00
8894;BME280;4483;48.622;9.230;2024-03-17T08:45:54;98416.69;;;13.10;100.00
8894;BME280;4483;48.622;9.230;2024-03-17T08:48:24;98410.69;;;13.30;100.00
8894;BME280;4483;48.622;9.230;2024-03-17T08:50:51;98413.56;;;13.63;100.00
8894;BME280;4483;48.622;9.230;2024-03-17T08:53:18;98411.94;;;13.99;100.00
8894;BME280;4483;48.622;9.230;2024-03-17T08:55:44;98404.53;;;14.29;100.00
8894;BME280;4483;48.622;9.230;2024-03-17T08:58:12;98405.84;;;14.56;100.00
8894;BME280;4483;48.622;9.230;2024-03-17T09:00:38;98405.13;;;14.88;100.00
8894;BME280;4483;48.622;9.230;2024-03-17T09:03:06;98406.84;;;15.23;100.00
8894;BME280;4483;48.622;9.230;2024-03-17T09:05:35;98401.41;;;15.62;100.00
8894;BME280;4483;48.622;9.230;2024-03-17T09:08:01;98398.69;;;15.96;97.46
8894;BME280;4483;48.622;9.230;2024-03-17T09:10:28;98392.06;;;16.06;94.04
8894;BME280;4483;48.622;9.230;2024-03-17T09:12:54;98395.19;;;16.13;95.72
8894;BME280;4483;48.622;9.230;2024-03-17T09:15:23;98395.19;;;16.13;95.90
8894;BME280;4483;48.622;9.230;2024-03-17T09:17:50;98390.31;;;16.06;93.69
8894;BME280;4483;48.622;9.230;2024-03-17T09:20:16;98397.34;;;16.04;94.03
8894;BME280;4483;48.622;9.230;2024-03-17T09:22:43;98396.19;;;16.10;93.85
8894;BME280;4483;48.622;9.230;2024-03-17T09:25:10;98387.91;;;16.19;93.42
8894;BME280;4483;48.622;9.230;2024-03-17T09:27:37;98389.09;;;16.29;92.50
8894;BME280;4483;48.622;9.230;2024-03-17T09:30:04;98388.50;;;16.24;90.55
8894;BME280;4483;48.622;9.230;2024-03-17T09:32:35;98386.81;;;16.23;89.87
8894;BME280;4483;48.622;9.230;2024-03-17T09:35:02;98379.06;;;16.06;88.43
8894;BME280;4483;48.622;9.230;2024-03-17T09:37:30;98383.94;;;15.96;85.83
8894;BME280;4483;48.622;9.230;2024-03-17T09:39:56;98375.47;;;15.93;85.63
8894;BME280;4483;48.622;9.230;2024-03-17T09:42:25;98376.25;;;15.95;85.89
8894;BME280;4483;48.622;9.230;2024-03-17T09:44:53;98382.13;;;15.98;86.60
8894;BME280;4483;48.622;9.230;2024-03-17T09:47:22;98383.47;;;16.05;86.15
8894;BME280;4483;48.622;9.230;2024-03-17T09:49:50;98381.84;;;16.03;85.50
8894;BME280;4483;48.622;9.230;2024-03-17T09:52:20;98376.75;;;16.01;85.46
8894;BME280;4483;48.622;9.230;2024-03-17T09:54:51;98381.09;;;15.85;82.13
8894;BME280;4483;48.622;9.230;2024-03-17T09:57:22;98387.75;;;15.74;83.41
8894;BME280;4483;48.622;9.230;2024-03-17T09:59:52;98382.19;;;15.64;80.53
8894;BME280;4483;48.622;9.230;2024-03-17T10:02:21;98383.75;;;15.34;80.94
8894;BME280;4483;48.622;9.230;2024-03-17T10:04:47;98387.59;;;15.27;79.63
8894;BME280;4483;48.622;9.230;2024-03-17T10:07:15;98385.69;;;15.31;81.42
8894;BME280;4483;48.622;9.230;2024-03-17T10:09:42;98370.78;;;15.34;79.89
8894;BME280;4483;48.622;9.230;2024-03-17T10:12:25;98386.28;;;15.53;80.17
8894;BME280;4483;48.622;9.230;2024-03-17T10:14:58;98386.09;;;15.73;79.61
8894;BME280;4483;48.622;9.230;2024-03-17T10:17:29;98376.91;;;15.98;79.68
8894;BME280;4483;48.622;9.230;2024-03-17T10:20:11;98371.72;;;16.30;78.67
8894;BME280;4483;48.622;9.230;2024-03-17T10:22:39;98384.97;;;16.56;76.79
8894;BME280;4483;48.622;9.230;2024-03-17T10:25:08;98373.94;;;16.82;75.42
8894;BME280;4483;48.622;9.230;2024-03-17T10:27:43;98371.41;;;17.10;73.76
8894;BME280;4483;48.622;9.230;2024-03-17T10:30:18;98376.22;;;17.32;73.33
8894;BME280;4483;48.622;9.230;2024-03-17T10:32:45;98367.75;;;17.43;72.13
8894;BME280;4483;48.622;9.230;2024-03-17T10:35:28;98365.19;;;17.57;71.58
8894;BME280;4483;48.622;9.230;2024-03-17T10:37:58;98365.13;;;17.72;70.81
8894;BME280;4483;48.622;9.230;2024-03-17T10:40:26;98367.44;;;17.77;69.96
8894;BME280;4483;48.622;9.230;2024-03-17T10:42:55;98367.44;;;17.77;69.67
8894;BME280;4483;48.622;9.230;2024-03-17T10:45:21;98373.94;;;17.98;68.98
8894;BME280;4483;48.622;9.230;2024-03-17T10:47:50;98366.97;;;18.39;68.61
8894;BME280;4483;48.622;9.230;2024-03-17T10:50:19;98368.47;;;18.70;67.34
8894;BME280;4483;48.622;9.230;2024-03-17T10:52:47;98366.84;;;18.81;67.18
8894;BME280;4483;48.622;9.230;2024-03-17T10:55:22;98366.69;;;18.97;65.56
8894;BME280;4483;48.622;9.230;2024-03-17T10:57:50;98368.38;;;19.11;63.76
8894;BME280;4483;48.622;9.230;2024-03-17T11:00:18;98371.25;;;19.33;63.93
8894;BME280;4483;48.622;9.230;2024-03-17T11:02:48;98365.19;;;19.70;62.06
8894;BME280;4483;48.622;9.230;2024-03-17T11:05:18;98355.56;;;19.83;59.86
8894;BME280;4483;48.622;9.230;2024-03-17T11:07:47;98360.50;;;20.11;59.54
8894;BME280;4483;48.622;9.230;2024-03-17T11:10:17;98355.63;;;20.07;58.88
8894;BME280;4483;48.622;9.230;2024-03-17T11:12:48;98347.69;;;19.95;57.39
8894;BME280;4483;48.622;9.230;2024-03-17T11:15:37;98359.88;;;19.71;57.76
8894;BME280;4483;48.622;9.230;2024-03-17T11:18:29;98351.34;;;19.30;58.03
8894;BME280;4483;48.622;9.230;2024-03-17T11:20:58;98347.03;;;18.91;58.50
8894;BME280;4483;48.622;9.230;2024-03-17T11:23:28;98350.38;;;18.54;59.71
8894;BME280;4483;48.622;9.230;2024-03-17T11:25:56;98344.28;;;18.13;59.42
8894;BME280;4483;48.622;9.230;2024-03-17T11:28:48;98346.00;;;17.86;60.69
8894;BME280;4483;48.622;9.230;2024-03-17T11:31:35;98343.13;;;17.76;61.97
8894;BME280;4483;48.622;9.230;2024-03-17T11:34:03;98341.94;;;17.68;62.50
8894;BME280;4483;48.622;9.230;2024-03-17T11:36:33;98344.25;;;17.58;63.46
8894;BME280;4483;48.622;9.230;2024-03-17T11:39:03;98340.44;;;17.50;64.02
8894;BME280;4483;48.622;9.230;2024-03-17T11:41:32;98343.56;;;17.41;63.87
8894;BME280;4483;48.622;9.230;2024-03-17T11:44:14;98341.97;;;17.24;64.40
8894;BME280;4483;48.622;9.230;2024-03-17T11:46:40;98337.78;;;17.22;64.73
8894;BME280;4483;48.622;9.230;2024-03-17T11:49:16;98339.28;;;17.26;64.85
8894;BME280;4483;48.622;9.230;2024-03-17T11:51:44;98332.56;;;17.22;64.42
8894;BME280;4483;48.622;9.230;2024-03-17T11:54:14;98334.50;;;17.18;65.08
8894;BME280;4483;48.622;9.230;2024-03-17T11:56:44;98335.72;;;17.13;65.51
8894;BME280;4483;48.622;9.230;2024-03-17T11:59:11;98326.16;;;17.13;66.01
8894;BME280;4483;48.622;9.230;2024-03-17T12:01:39;98326.69;;;17.18;66.18
8894;BME280;4483;48.622;9.230;2024-03-17T12:04:07;98316.56;;;17.14;66.09
8894;BME280;4483;48.622;9.230;2024-03-17T12:06:33;98323.75;;;17.24;66.18
8894;BME280;4483;48.622;9.230;2024-03-17T12:09:10;98314.28;;;17.37;66.07
8894;BME280;4483;48.622;9.230;2024-03-17T12:11:36;98315.47;;;17.46;65.41
8894;BME280;4483;48.622;9.230;2024-03-17T12:14:15;98310.03;;;17.50;64.69
8894;BME280;4483;48.622;9.230;2024-03-17T12:16:48;98306.38;;;17.53;64.59
8894;BME280;4483;48.622;9.230;2024-03-17T12:19:15;98309.00;;;17.53;64.65
8894;BME280;4483;48.622;9.230;2024-03-17T12:21:43;98306.00;;;17.45;63.76
8894;BME280;4483;48.622;9.230;2024-03-17T12:24:14;98309.97;;;17.36;64.09
8894;BME280;4483;48.622;9.230;2024-03-17T12:26:40;98305.81;;;17.34;64.35
8894;BME280;4483;48.622;9.230;2024-03-17T12:29:22;98306.63;;;17.34;63.19
8894;BME280;4483;48.622;9.230;2024-03-17T12:31:50;98311.47;;;17.26;62.93
8894;BME280;4483;48.622;9.230;2024-03-17T12:34:18;98301.16;;;17.25;62.33
8894;BME280;4483;48.622;9.230;2024-03-17T12:36:44;98299.09;;;17.30;63.07
8894;BME280;4483;48.622;9.230;2024-03-17T12:39:17;98301.25;;;17.37;63.11
8894;BME280;4483;48.622;9.230;2024-03-17T12:41:44;98290.81;;;17.37;61.68
8894;BME280;4483;48.622;9.230;2024-03-17T12:44:21;98289.53;;;17.30;60.76
8894;BME280;4483;48.622;9.230;2024-03-17T12:46:46;98286.44;;;17.24;60.42
8894;BME280;4483;48.622;9.230;2024-03-17T12:49:15;98280.94;;;17.14;58.62
8894;BME280;4483;48.622;9.230;2024-03-17T12:51:41;98276.78;;;16.97;57.29
8894;BME280;4483;48.622;9.230;2024-03-17T12:54:13;98278.47;;;16.83;57.70
8894;BME280;4483;48.622;9.230;2024-03-17T12:56:39;98275.97;;;16.81;57.94
8894;BME280;4483;48.622;9.230;2024-03-17T12:59:23;98277.81;;;16.79;57.53
8894;BME280;4483;48.622;9.230;2024-03-17T13:02:10;98280.44;;;16.79;57.51
8894;BME280;4483;48.622;9.230;2024-03-17T13:04:39;98274.22;;;16.82;57.54
8894;BME280;4483;48.622;9.230;2024-03-17T13:07:11;98273.13;;;16.86;57.04
8894;BME280;4483;48.622;9.230;2024-03-17T13:09:38;98267.56;;;16.92;56.99
8894;BME280;4483;48.622;9.230;2024-03-17T13:12:14;98272.66;;;17.07;56.99
8894;BME280;4483;48.622;9.230;2024-03-17T13:14:41;98271.84;;;17.21;57.35
8894;BME280;4483;48.622;9.230;2024-03-17T13:17:14;98267.50;;;17.36;57.10
8894;BME280;4483;48.622;9.230;2024-03-17T13:19:46;98255.50;;;17.47;56.70
8894;BME280;4483;48.622;9.230;2024-03-17T13:22:13;98253.81;;;17.60;56.44
8894;BME280;4483;48.622;9.230;2024-03-17T13:24:40;98248.88;;;17.70;56.34